Time;durP1;ratioP1;P1;durP2;ratioP2;P2;SDS_P1;SDS_P2;PMS_P1;PMS_P2;Temp;Humidity;BMP_temperature;BMP_pressure;BME280_temperature;BME280_humidity;BME280_pressure;Samples;Min_cycle;Max_cycle;Signal;HPM_P1;HPM_P2
2021/03/24 00:02:18;;;;;;;;;;;;;;;10.31;54.86;101890.47;4740083;30;19933;-73
2021/03/24 00:04:45;;;;;;;;;;;;;;;10.23;55.16;101887.19;4751475;30;20303;-73
2021/03/24 00:07:12;;;;;;;;;;;;;;;10.40;54.73;101895.09;4735007;30;20300;-73
2021/03/24 00:09:38;;;;;;;;;;;;;;;10.52;54.55;101880.97;4745957;30;19925;-71
2021/03/24 00:12:05;;;;;;;;;;;;;;;10.46;54.53;101891.19;4749973;30;19937;-73
2021/03/24 00:14:34;;;;;;;;;;;;;;;10.53;54.57;101885.41;4748337;30;19927;-74
2021/03/24 00:17:00;;;;;;;;;;;;;;;10.51;54.44;101896.72;4737538;30;20001;-75
2021/03/24 00:19:27;;;;;;;;;;;;;;;10.45;54.64;101889.56;4758418;30;19932;-73
2021/03/24 00:22:04;;;;;;;;;;;;;;;10.31;55.09;101887.72;4758183;30;20355;-73
2021/03/24 00:24:31;;;;;;;;;;;;;;;10.38;54.88;101889.06;4745600;30;19926;-73
2021/03/24 00:27:03;;;;;;;;;;;;;;;10.05;55.91;101884.22;4736923;30;19926;-73
2021/03/24 00:29:30;;;;;;;;;;;;;;;10.09;55.84;101888.09;4748705;30;19926;-73
2021/03/24 00:32:04;;;;;;;;;;;;;;;10.21;55.70;101888.59;4751719;30;19926;-72
2021/03/24 00:34:34;;;;;;;;;;;;;;;10.33;55.21;101886.31;4740356;30;19933;-73
2021/03/24 00:37:04;;;;;;;;;;;;;;;10.37;55.14;101892.94;4769114;30;19926;-73
2021/03/24 00:39:30;;;;;;;;;;;;;;;10.26;55.52;101890.50;4761979;30;20268;-73
2021/03/24 00:41:57;;;;;;;;;;;;;;;10.24;55.49;101893.53;4751908;30;19933;-74
2021/03/24 00:44:24;;;;;;;;;;;;;;;10.08;56.02;101897.41;4767990;30;19944;-74
2021/03/24 00:46:50;;;;;;;;;;;;;;;10.17;55.93;101890.25;4756955;30;19930;-75
2021/03/24 00:49:17;;;;;;;;;;;;;;;10.11;55.85;101894.97;4736616;30;19926;-74
2021/03/24 00:51:44;;;;;;;;;;;;;;;10.08;56.17;101897.41;4745669;30;19941;-70
2021/03/24 00:54:11;;;;;;;;;;;;;;;10.16;55.84;101891.38;4745982;30;20296;-72
2021/03/24 00:56:37;;;;;;;;;;;;;;;10.19;55.92;101896.31;4739167;30;19934;-72
2021/03/24 00:59:06;;;;;;;;;;;;;;;10.31;55.56;101891.28;4749772;30;19933;-70
2021/03/24 01:01:33;;;;;;;;;;;;;;;10.31;55.47;101890.47;4751738;30;19933;-73
2021/03/24 01:03:59;;;;;;;;;;;;;;;10.34;55.52;101882.44;4751843;30;20033;-71
2021/03/24 01:06:26;;;;;;;;;;;;;;;10.22;55.68;101881.16;4743356;30;19937;-73
2021/03/24 01:08:56;;;;;;;;;;;;;;;10.15;55.76;101879.53;4739751;30;20295;-72
2021/03/24 01:11:23;;;;;;;;;;;;;;;10.18;55.86;101880.91;4733208;30;19934;-71
2021/03/24 01:13:49;;;;;;;;;;;;;;;10.29;55.63;101874.22;4724337;30;19930;-72
2021/03/24 01:16:16;;;;;;;;;;;;;;;10.19;56.07;101879.78;4751308;30;19930;-71
2021/03/24 01:18:43;;;;;;;;;;;;;;;9.84;57.18;101880.72;4766535;30;19930;-71
2021/03/24 01:21:13;;;;;;;;;;;;;;;9.82;57.17;101874.69;4746437;30;19930;-72
2021/03/24 01:23:40;;;;;;;;;;;;;;;10.03;56.73;101875.41;4748386;30;19933;-71
2021/03/24 01:26:07;;;;;;;;;;;;;;;9.85;57.20;101867.81;4756058;30;20310;-72
2021/03/24 01:28:40;;;;;;;;;;;;;;;9.92;57.01;101871.06;4754008;30;19933;-69
2021/03/24 01:31:13;;;;;;;;;;;;;;;9.85;57.26;101870.56;4746597;30;19926;-70
2021/03/24 01:33:40;;;;;;;;;;;;;;;9.80;57.61;101873.28;4748001;30;19926;-71
2021/03/24 01:36:07;;;;;;;;;;;;;;;9.74;57.53;101869.75;4739786;30;19932;-73
2021/03/24 01:38:33;;;;;;;;;;;;;;;9.71;58.25;101872.25;4740787;30;19929;-70
2021/03/24 01:41:01;;;;;;;;;;;;;;;9.63;58.14;101870.88;4753721;30;19933;-69
2021/03/24 01:43:30;;;;;;;;;;;;;;;9.57;58.51;101866.47;4751017;30;19927;-70
2021/03/24 01:46:18;;;;;;;;;;;;;;;9.68;58.14;101859.84;4761577;30;19926;-69
2021/03/24 01:48:45;;;;;;;;;;;;;;;9.74;57.92;101860.66;4739686;30;19938;-70
2021/03/24 01:51:15;;;;;;;;;;;;;;;9.58;58.30;101868.16;4760111;30;19978;-67
2021/03/24 01:53:42;;;;;;;;;;;;;;;9.39;58.96;101869.84;4749601;30;19926;-70
2021/03/24 01:56:09;;;;;;;;;;;;;;;9.66;58.42;101870.31;4735845;30;19952;-70
2021/03/24 01:58:36;;;;;;;;;;;;;;;9.37;59.25;101865.69;4745706;30;19937;-73
2021/03/24 02:01:05;;;;;;;;;;;;;;;9.23;59.62;101864.63;4760422;30;19933;-74
2021/03/24 02:03:31;;;;;;;;;;;;;;;9.31;59.68;101855.84;4765836;30;19933;-73
2021/03/24 02:05:59;;;;;;;;;;;;;;;9.35;59.40;101860.50;4735504;30;19933;-73
2021/03/24 02:08:32;;;;;;;;;;;;;;;9.26;59.57;101853.09;4763855;30;19938;-72
2021/03/24 02:11:15;;;;;;;;;;;;;;;9.40;59.35;101860.47;4750376;30;19926;-72
2021/03/24 02:13:43;;;;;;;;;;;;;;;9.48;59.01;101851.69;4763990;30;19925;-73
2021/03/24 02:16:19;;;;;;;;;;;;;;;9.28;59.94;101851.69;4752430;30;19926;-72
2021/03/24 02:18:46;;;;;;;;;;;;;;;9.27;59.65;101855.56;4742526;30;19941;-72
2021/03/24 02:21:16;;;;;;;;;;;;;;;9.30;59.65;101851.41;4750345;30;19952;-70
2021/03/24 02:23:53;;;;;;;;;;;;;;;9.24;59.84;101836.03;4759825;30;19933;-73
2021/03/24 02:26:24;;;;;;;;;;;;;;;9.13;60.17;101847.03;4751341;30;20394;-71
2021/03/24 02:28:54;;;;;;;;;;;;;;;9.18;60.23;101837.97;4754386;30;19926;-74
2021/03/24 02:31:21;;;;;;;;;;;;;;;9.02;60.80;101844.56;4746824;30;20297;-71
2021/03/24 02:33:48;;;;;;;;;;;;;;;8.86;61.26;101835.50;4743517;30;20303;-72
2021/03/24 02:36:16;;;;;;;;;;;;;;;8.96;61.06;101835.50;4769377;30;19925;-72
2021/03/24 02:38:43;;;;;;;;;;;;;;;8.78;61.49;101835.25;4740539;30;19926;-71
2021/03/24 02:41:10;;;;;;;;;;;;;;;8.95;61.15;101839.38;4737684;30;20329;-74
2021/03/24 02:43:37;;;;;;;;;;;;;;;8.88;61.47;101825.09;4747374;30;19926;-72
2021/03/24 02:46:04;;;;;;;;;;;;;;;8.76;61.77;101823.69;4750486;30;19932;-72
2021/03/24 02:48:33;;;;;;;;;;;;;;;8.77;61.99;101819.88;4756479;30;19938;-72
2021/03/24 02:51:01;;;;;;;;;;;;;;;8.91;61.42;101821.78;4748558;30;19948;-72
2021/03/24 02:53:30;;;;;;;;;;;;;;;8.79;61.67;101820.41;4741348;30;19926;-71
2021/03/24 02:56:01;;;;;;;;;;;;;;;8.68;62.20;101825.06;4741586;30;20290;-71
2021/03/24 02:58:27;;;;;;;;;;;;;;;8.76;61.98;101827.28;4754916;30;19925;-71
2021/03/24 03:00:54;;;;;;;;;;;;;;;8.71;62.35;101820.97;4750542;30;19933;-71
2021/03/24 03:03:23;;;;;;;;;;;;;;;8.76;62.26;101820.94;4769818;30;19926;-70
2021/03/24 03:05:50;;;;;;;;;;;;;;;8.90;61.50;101824.81;4775371;30;19926;-70
2021/03/24 03:08:18;;;;;;;;;;;;;;;8.74;62.21;101826.72;4775713;30;19993;-70
2021/03/24 03:10:51;;;;;;;;;;;;;;;8.63;62.73;101822.31;4754143;30;19926;-72
2021/03/24 03:13:19;;;;;;;;;;;;;;;8.75;62.46;101820.13;4757090;30;19975;-72
2021/03/24 03:15:46;;;;;;;;;;;;;;;8.70;62.63;101813.81;4752802;30;19934;-72
2021/03/24 03:18:24;;;;;;;;;;;;;;;8.56;62.79;101823.69;4751120;30;19937;-73
2021/03/24 03:20:53;;;;;;;;;;;;;;;8.54;63.09;101818.47;4735687;30;20319;-73
2021/03/24 03:23:21;;;;;;;;;;;;;;;8.50;62.93;101820.13;4750048;30;19933;-73
2021/03/24 03:25:49;;;;;;;;;;;;;;;8.74;62.62;101815.75;4738245;30;19941;-75
2021/03/24 03:28:17;;;;;;;;;;;;;;;8.56;62.61;101821.75;4754203;30;19934;-72
2021/03/24 03:30:46;;;;;;;;;;;;;;;8.41;63.56;101824.50;4754828;30;19926;-72
2021/03/24 03:33:13;;;;;;;;;;;;;;;8.33;63.50;101822.28;4751358;30;19934;-74
2021/03/24 03:35:40;;;;;;;;;;;;;;;8.47;63.47;101817.09;4753769;30;19926;-73
2021/03/24 03:38:09;;;;;;;;;;;;;;;8.40;63.12;101814.63;4754219;30;19926;-73
2021/03/24 03:40:37;;;;;;;;;;;;;;;8.25;63.80;101809.09;4737630;30;19926;-74
2021/03/24 03:43:06;;;;;;;;;;;;;;;8.35;63.37;101813.78;4751437;30;19949;-71
2021/03/24 03:45:33;;;;;;;;;;;;;;;8.28;63.67;101807.72;4767309;30;19926;-73
2021/03/24 03:47:59;;;;;;;;;;;;;;;8.31;63.50;101810.75;4754722;30;19949;-73
2021/03/24 03:50:27;;;;;;;;;;;;;;;8.43;63.43;101815.97;4755829;30;19929;-73
2021/03/24 03:52:58;;;;;;;;;;;;;;;8.35;63.50;101809.09;4751336;30;19933;-72
2021/03/24 03:55:25;;;;;;;;;;;;;;;8.35;63.64;101809.09;4719323;30;19953;-70
2021/03/24 03:57:55;;;;;;;;;;;;;;;8.28;63.58;101808.53;4749890;30;19926;-69
2021/03/24 04:00:26;;;;;;;;;;;;;;;8.17;63.90;101804.09;4754762;30;20283;-70
2021/03/24 04:02:58;;;;;;;;;;;;;;;8.34;63.58;101807.47;4753037;30;19926;-70
2021/03/24 04:05:40;;;;;;;;;;;;;;;8.45;63.12;101805.56;4719290;30;19926;-71
2021/03/24 04:08:08;;;;;;;;;;;;;;;8.31;63.93;101801.69;4769479;30;19937;-70
2021/03/24 04:10:36;;;;;;;;;;;;;;;8.15;64.43;101808.22;4753803;30;19937;-71
2021/03/24 04:13:04;;;;;;;;;;;;;;;8.18;64.52;101800.25;4726557;30;19927;-70
2021/03/24 04:15:31;;;;;;;;;;;;;;;8.22;64.43;101803.28;4719868;30;19928;-72
2021/03/24 04:17:59;;;;;;;;;;;;;;;8.13;64.57;101802.16;4732957;30;19927;-71
2021/03/24 04:20:26;;;;;;;;;;;;;;;8.12;64.77;101806.00;4767784;30;19930;-71
2021/03/24 04:22:54;;;;;;;;;;;;;;;8.23;64.04;101811.25;4723429;30;20619;-71
2021/03/24 04:25:25;;;;;;;;;;;;;;;8.15;64.57;101813.69;4742833;30;19926;-72
2021/03/24 04:27:52;;;;;;;;;;;;;;;8.14;64.40;101810.16;4754636;30;20414;-74
2021/03/24 04:30:20;;;;;;;;;;;;;;;8.12;64.50;101806.84;4718852;30;19930;-72
2021/03/24 04:32:47;;;;;;;;;;;;;;;8.02;64.95;101809.53;4746734;30;20302;-73
2021/03/24 04:35:15;;;;;;;;;;;;;;;8.04;64.71;101810.09;4738314;30;19926;-72
2021/03/24 04:37:43;;;;;;;;;;;;;;;8.00;65.02;101809.00;4753700;30;19925;-71
2021/03/24 04:40:13;;;;;;;;;;;;;;;7.85;65.02;101809.78;4751401;30;19926;-74
2021/03/24 04:42:50;;;;;;;;;;;;;;;7.85;65.21;101808.94;4737640;30;19926;-73
2021/03/24 04:45:21;;;;;;;;;;;;;;;7.80;65.53;101800.69;4721263;30;19937;-74
2021/03/24 04:47:49;;;;;;;;;;;;;;;7.73;65.66;101803.69;4767176;30;19926;-73
2021/03/24 04:50:25;;;;;;;;;;;;;;;7.78;65.39;101809.19;4743063;30;19926;-72
2021/03/24 04:52:53;;;;;;;;;;;;;;;7.81;65.74;101816.06;4732332;30;20428;-70
2021/03/24 04:55:33;;;;;;;;;;;;;;;7.72;66.06;101813.00;4754466;30;19926;-69
2021/03/24 04:58:03;;;;;;;;;;;;;;;7.83;65.69;101811.94;4753544;30;19926;-68
2021/03/24 05:00:36;;;;;;;;;;;;;;;7.89;65.40;101805.41;4739499;30;19926;-70
2021/03/24 05:03:06;;;;;;;;;;;;;;;7.80;65.69;101803.44;4745323;30;19933;-73
2021/03/24 05:05:33;;;;;;;;;;;;;;;7.77;65.69;101801.25;4718362;30;20268;-72
2021/03/24 05:08:09;;;;;;;;;;;;;;;7.92;65.20;101802.13;4750188;30;19934;-73
2021/03/24 05:10:36;;;;;;;;;;;;;;;7.87;65.34;101812.25;4758123;30;19947;-72
2021/03/24 05:13:06;;;;;;;;;;;;;;;7.93;65.12;101819.41;4748954;30;20370;-73
2021/03/24 05:15:38;;;;;;;;;;;;;;;7.91;65.33;101818.84;4753604;30;19925;-73
2021/03/24 05:18:12;;;;;;;;;;;;;;;7.85;65.14;101811.69;4748219;30;19933;-72
2021/03/24 05:20:57;;;;;;;;;;;;;;;8.06;64.92;101813.41;4748443;30;19933;-73
2021/03/24 05:23:27;;;;;;;;;;;;;;;7.82;65.59;101815.81;4740708;30;19941;-74
2021/03/24 05:26:03;;;;;;;;;;;;;;;7.78;65.73;101820.16;4754902;30;20294;-72
2021/03/24 05:28:41;;;;;;;;;;;;;;;7.82;65.63;101820.44;4736282;30;19927;-72
2021/03/24 05:31:16;;;;;;;;;;;;;;;7.73;66.13;101822.06;4750292;30;19926;-73
2021/03/24 05:33:44;;;;;;;;;;;;;;;7.77;65.51;101817.69;4744005;30;20394;-72
2021/03/24 05:36:15;;;;;;;;;;;;;;;7.72;66.19;101814.94;4749441;30;19926;-69
2021/03/24 05:38:56;;;;;;;;;;;;;;;7.76;65.55;101814.13;4749626;30;19959;-72
2021/03/24 05:42:02;;;;;;;;;;;;;;;7.61;66.18;101813.22;4751226;30;19933;-71
2021/03/24 05:44:39;;;;;;;;;;;;;;;7.65;66.33;101819.84;4743977;30;20019;-73
2021/03/24 05:47:15;;;;;;;;;;;;;;;7.75;65.82;101825.34;4752517;30;19925;-73
2021/03/24 05:49:47;;;;;;;;;;;;;;;7.61;66.61;101821.44;4757900;30;20295;-72
2021/03/24 05:52:32;;;;;;;;;;;;;;;7.48;66.62;101821.94;4728740;30;19926;-72
2021/03/24 05:55:20;;;;;;;;;;;;;;;7.47;67.24;101825.75;4756356;30;19925;-74
2021/03/24 05:57:47;;;;;;;;;;;;;;;7.54;66.75;101824.44;4741188;30;19936;-72
2021/03/24 06:00:25;;;;;;;;;;;;;;;7.53;66.48;101821.97;4761991;30;19926;-73
2021/03/24 06:03:03;;;;;;;;;;;;;;;7.53;66.54;101822.78;4719586;30;19926;-73
2021/03/24 06:05:42;;;;;;;;;;;;;;;7.50;66.91;101823.31;4752529;30;19926;-73
2021/03/24 06:08:31;;;;;;;;;;;;;;;7.60;66.79;101823.34;4767601;30;19925;-74
2021/03/24 06:11:10;;;;;;;;;;;;;;;7.85;65.97;101830.88;4754140;30;19934;-72
2021/03/24 06:13:36;;;;;;;;;;;;;;;7.86;65.85;101819.63;4756103;30;20315;-73
2021/03/24 06:16:12;;;;;;;;;;;;;;;7.75;65.71;101828.09;4771358;30;19925;-72
2021/03/24 06:18:39;;;;;;;;;;;;;;;7.62;66.14;101828.56;4738034;30;20013;-70
2021/03/24 06:21:18;;;;;;;;;;;;;;;7.65;66.55;101834.34;4753880;30;19926;-72
2021/03/24 06:23:48;;;;;;;;;;;;;;;7.68;66.30;101833.00;4756699;30;19941;-74
2021/03/24 06:26:38;;;;;;;;;;;;;;;7.69;66.41;101826.41;4768866;30;19935;-71
2021/03/24 06:29:36;;;;;;;;;;;;;;;7.78;66.03;101833.88;4744342;30;19949;-71
2021/03/24 06:32:11;;;;;;;;;;;;;;;7.70;66.19;101833.56;4761690;30;19926;-70
2021/03/24 06:34:53;;;;;;;;;;;;;;;7.60;66.40;101831.59;4737812;30;19933;-70
2021/03/24 06:37:32;;;;;;;;;;;;;;;7.55;66.84;101837.03;4768852;30;19926;-70
2021/03/24 06:40:20;;;;;;;;;;;;;;;7.73;66.10;101827.53;4757341;30;19986;-72
2021/03/24 06:43:17;;;;;;;;;;;;;;;7.62;66.37;101831.31;4738889;30;19933;-71
2021/03/24 06:45:51;;;;;;;;;;;;;;;7.72;65.84;101839.63;4735706;30;19934;-71
2021/03/24 06:48:36;;;;;;;;;;;;;;;7.60;66.08;101831.59;4720280;30;20290;-67
2021/03/24 06:51:03;;;;;;;;;;;;;;;7.69;66.07;101832.72;4738572;30;19927;-69
2021/03/24 06:53:49;;;;;;;;;;;;;;;7.54;66.61;101838.16;4741084;30;20028;-69
2021/03/24 06:56:15;;;;;;;;;;;;;;;7.51;66.74;101840.59;4742539;29;19926;-71
2021/03/24 06:58:54;;;;;;;;;;;;;;;7.49;66.68;101842.78;4750175;30;19926;-71
2021/03/24 07:01:48;;;;;;;;;;;;;;;7.58;66.65;101843.94;4731522;30;19926;-73
2021/03/24 07:04:25;;;;;;;;;;;;;;;7.61;66.19;101843.38;4740835;30;19943;-69
2021/03/24 07:07:03;;;;;;;;;;;;;;;7.56;66.55;101846.94;4727627;30;19933;-72
2021/03/24 07:09:36;;;;;;;;;;;;;;;7.73;65.95;101839.34;4741508;30;19934;-70
2021/03/24 07:12:07;;;;;;;;;;;;;;;7.83;65.78;101849.50;4737221;30;19926;-72
2021/03/24 07:14:40;;;;;;;;;;;;;;;7.89;65.50;101843.81;4731719;30;19933;-71
2021/03/24 07:17:13;;;;;;;;;;;;;;;7.78;65.36;101842.09;4727964;30;19930;-73
2021/03/24 07:19:49;;;;;;;;;;;;;;;7.54;66.65;101848.28;4720140;30;19932;-73
2021/03/24 07:22:18;;;;;;;;;;;;;;;7.66;66.56;101848.91;4754987;30;19926;-74
2021/03/24 07:25:04;;;;;;;;;;;;;;;7.84;66.09;101853.94;4760915;30;19926;-70
2021/03/24 07:27:38;;;;;;;;;;;;;;;8.09;65.36;101859.50;4758026;30;19926;-74
2021/03/24 07:30:05;;;;;;;;;;;;;;;8.07;65.15;101860.88;4752172;30;19933;-73
2021/03/24 07:32:32;;;;;;;;;;;;;;;8.33;64.84;101855.25;4761564;30;19926;-74
2021/03/24 07:35:18;;;;;;;;;;;;;;;8.47;63.85;101856.34;4762005;30;19926;-72
2021/03/24 07:38:04;;;;;;;;;;;;;;;8.57;63.51;101856.38;4752103;30;19926;-71
2021/03/24 07:40:37;;;;;;;;;;;;;;;8.72;63.03;101858.28;4730568;30;19927;-74
2021/03/24 07:43:23;;;;;;;;;;;;;;;8.79;63.18;101856.94;4757045;30;20388;-70
2021/03/24 07:46:09;;;;;;;;;;;;;;;8.89;62.72;101856.94;4751315;30;19926;-73
2021/03/24 07:48:42;;;;;;;;;;;;;;;9.03;62.16;101844.28;4740758;30;20311;-71
2021/03/24 07:51:28;;;;;;;;;;;;;;;9.10;61.79;101852.25;4744030;30;20413;-72
2021/03/24 07:54:03;;;;;;;;;;;;;;;9.05;62.25;101844.03;4705460;30;20402;-71
2021/03/24 07:56:35;;;;;;;;;;;;;;;9.19;61.46;101845.09;4714242;30;20407;-72
2021/03/24 07:59:20;;;;;;;;;;;;;;;9.09;61.65;101847.88;4698574;30;20410;-71
2021/03/24 08:01:53;;;;;;;;;;;;;;;9.29;61.39;101849.78;4689923;30;20047;-69
2021/03/24 08:04:20;;;;;;;;;;;;;;;9.32;61.44;101854.72;4681920;30;19927;-71
2021/03/24 08:06:59;;;;;;;;;;;;;;;9.49;60.77;101853.31;4684830;30;19935;-70
2021/03/24 08:09:28;;;;;;;;;;;;;;;9.48;60.93;101854.44;4684024;30;19934;-71
2021/03/24 08:12:04;;;;;;;;;;;;;;;9.57;60.21;101844.47;4693436;30;19942;-72
2021/03/24 08:14:50;;;;;;;;;;;;;;;9.49;60.54;101857.97;4695720;30;20381;-71
2021/03/24 08:17:18;;;;;;;;;;;;;;;9.82;60.20;101854.59;4692737;30;19942;-72
2021/03/24 08:19:50;;;;;;;;;;;;;;;9.93;59.73;101854.28;4693764;30;19935;-76
2021/03/24 08:22:36;;;;;;;;;;;;;;;10.12;59.07;101854.50;4682676;30;20424;-72
2021/03/24 08:25:21;;;;;;;;;;;;;;;10.07;59.01;101848.97;4677832;30;19927;-73
2021/03/24 08:28:02;;;;;;;;;;;;;;;10.26;58.42;101847.25;4697987;30;19927;-71
2021/03/24 08:30:48;;;;;;;;;;;;;;;10.36;58.26;101851.88;4679487;30;19927;-71
2021/03/24 08:33:15;;;;;;;;;;;;;;;10.40;57.95;101844.69;4744238;30;19933;-75
2021/03/24 08:36:01;;;;;;;;;;;;;;;10.69;57.12;101843.66;4759968;30;19933;-74
2021/03/24 08:38:40;;;;;;;;;;;;;;;10.66;57.24;101840.66;4737925;30;19937;-71
2021/03/24 08:41:25;;;;;;;;;;;;;;;10.66;56.98;101844.25;4757849;30;20311;-77
2021/03/24 08:43:53;;;;;;;;;;;;;;;10.81;56.80;101829.53;4749172;30;19926;-76
2021/03/24 08:46:24;;;;;;;;;;;;;;;10.74;56.92;101840.06;4736468;30;19926;-78
2021/03/24 08:48:52;;;;;;;;;;;;;;;11.00;56.30;101836.78;4750111;30;20618;-74
2021/03/24 08:51:48;;;;;;;;;;;;;;;11.16;55.98;101835.56;4738234;30;19926;-76
2021/03/24 08:54:33;;;;;;;;;;;;;;;11.22;55.56;101842.69;4682322;30;19927;-73
2021/03/24 08:57:11;;;;;;;;;;;;;;;11.55;54.97;101832.69;4684753;30;19935;-69
2021/03/24 08:59:42;;;;;;;;;;;;;;;11.86;55.09;101822.97;4669964;30;19928;-72
2021/03/24 09:02:27;;;;;;;;;;;;;;;12.16;54.73;101827.25;4663997;30;19928;-71
2021/03/24 09:05:08;;;;;;;;;;;;;;;12.19;52.93;101821.97;4675331;30;20400;-72
2021/03/24 09:07:49;;;;;;;;;;;;;;;12.37;53.32;101821.16;4684747;30;19935;-72
2021/03/24 09:10:27;;;;;;;;;;;;;;;12.60;52.62;101818.59;4665854;30;20018;-74
2021/03/24 09:12:57;;;;;;;;;;;;;;;12.76;51.88;101815.28;4682150;30;19928;-73
2021/03/24 09:15:34;;;;;;;;;;;;;;;12.94;51.56;101816.38;4684329;30;19927;-71
2021/03/24 09:18:01;;;;;;;;;;;;;;;13.05;51.99;101815.13;4663479;30;19932;-71
2021/03/24 09:20:35;;;;;;;;;;;;;;;13.29;50.11;101813.00;4664016;30;20444;-72
2021/03/24 09:23:02;;;;;;;;;;;;;;;13.12;49.17;101819.16;4664310;30;20075;-73
2021/03/24 09:25:42;;;;;;;;;;;;;;;13.14;49.99;101814.13;4681468;30;19935;-70
2021/03/24 09:28:11;;;;;;;;;;;;;;;13.08;49.16;101817.28;4667718;30;19927;-71
2021/03/24 09:30:41;;;;;;;;;;;;;;;13.45;48.15;101817.97;4710888;30;19926;-73
2021/03/24 09:33:26;;;;;;;;;;;;;;;13.26;47.16;101817.22;4750293;30;19937;-75
2021/03/24 09:35:56;;;;;;;;;;;;;;;13.49;47.69;101821.75;4750835;30;19937;-74
2021/03/24 09:38:23;;;;;;;;;;;;;;;13.48;45.66;101824.81;4758693;30;19926;-74
2021/03/24 09:40:51;;;;;;;;;;;;;;;13.56;45.14;101822.16;4753474;30;19926;-74
2021/03/24 09:43:22;;;;;;;;;;;;;;;13.68;44.75;101813.38;4754207;30;19930;-74
2021/03/24 09:46:09;;;;;;;;;;;;;;;13.62;44.22;101820.13;4725257;30;19926;-71
2021/03/24 09:48:45;;;;;;;;;;;;;;;13.67;44.41;101822.78;4761906;30;19933;-73
2021/03/24 09:51:16;;;;;;;;;;;;;;;13.77;45.26;101816.25;4731444;30;20272;-73
2021/03/24 09:53:42;;;;;;;;;;;;;;;14.06;43.75;101808.41;4724387;30;20383;-75
2021/03/24 09:56:12;;;;;;;;;;;;;;;13.88;44.22;101815.72;4766012;30;19933;-74
2021/03/24 09:58:45;;;;;;;;;;;;;;;14.09;44.34;101816.94;4738897;30;19926;-76
2021/03/24 10:01:16;;;;;;;;;;;;;;;14.70;41.99;101810.03;4738443;30;19933;-76
2021/03/24 10:03:51;;;;;;;;;;;;;;;14.38;42.12;101805.50;4754708;30;20291;-75
2021/03/24 10:06:19;;;;;;;;;;;;;;;14.18;42.51;101808.69;4754496;30;19940;-75
2021/03/24 10:08:46;;;;;;;;;;;;;;;13.98;44.04;101806.38;4755111;30;19934;-75
2021/03/24 10:11:16;;;;;;;;;;;;;;;14.17;44.24;101799.59;4754916;30;19933;-75
2021/03/24 10:13:48;;;;;;;;;;;;;;;14.35;42.22;101795.84;4733150;30;19931;-74
2021/03/24 10:16:18;;;;;;;;;;;;;;;14.38;41.24;101795.22;4736042;30;19933;-76
2021/03/24 10:18:44;;;;;;;;;;;;;;;14.48;41.03;101795.00;4737099;30;19926;-76
2021/03/24 10:21:25;;;;;;;;;;;;;;;14.35;41.31;101797.81;4752035;30;19933;-73
2021/03/24 10:23:54;;;;;;;;;;;;;;;14.42;41.28;101790.72;4745774;30;19934;-74
2021/03/24 10:26:31;;;;;;;;;;;;;;;14.47;42.97;101793.34;4732685;30;19926;-75
2021/03/24 10:29:09;;;;;;;;;;;;;;;14.59;41.28;101784.50;4741269;30;19926;-75
2021/03/24 10:31:39;;;;;;;;;;;;;;;14.50;41.43;101780.84;4729600;30;19937;-74
2021/03/24 10:34:23;;;;;;;;;;;;;;;14.21;41.47;101774.84;4716690;30;19933;-75
2021/03/24 10:37:01;;;;;;;;;;;;;;;14.54;41.30;101785.41;4752249;30;19926;-77
2021/03/24 10:39:40;;;;;;;;;;;;;;;14.48;40.98;101783.91;4730645;30;19934;-74
2021/03/24 10:42:32;;;;;;;;;;;;;;;14.74;42.15;101786.06;4743404;30;20379;-76
2021/03/24 10:45:22;;;;;;;;;;;;;;;14.83;41.12;101778.63;4720216;30;19937;-74
2021/03/24 10:47:51;;;;;;;;;;;;;;;14.86;41.21;101780.75;4739954;30;19937;-76
2021/03/24 10:50:38;;;;;;;;;;;;;;;14.86;40.82;101784.34;4733216;30;19927;-73
2021/03/24 10:53:09;;;;;;;;;;;;;;;14.91;40.24;101773.13;4736344;30;20295;-75
2021/03/24 10:55:38;;;;;;;;;;;;;;;14.92;40.15;101785.88;4750312;30;19925;-73
2021/03/24 10:58:30;;;;;;;;;;;;;;;15.19;39.63;101782.94;4746876;30;19925;-74
2021/03/24 11:01:09;;;;;;;;;;;;;;;15.33;39.05;101775.31;4736311;30;19933;-73
2021/03/24 11:03:48;;;;;;;;;;;;;;;15.25;39.78;101776.13;4768008;30;20394;-75
2021/03/24 11:06:26;;;;;;;;;;;;;;;15.49;38.91;101773.81;4738669;30;20229;-74
2021/03/24 11:09:01;;;;;;;;;;;;;;;15.54;39.15;101770.88;4744107;30;19933;-71
2021/03/24 11:11:27;;;;;;;;;;;;;;;15.76;38.73;101761.63;4720983;30;19945;-73
2021/03/24 11:14:23;;;;;;;;;;;;;;;15.60;38.84;101757.66;4743182;30;19926;-75
2021/03/24 11:16:59;;;;;;;;;;;;;;;15.31;39.81;101762.88;4755489;30;20417;-74
2021/03/24 11:19:36;;;;;;;;;;;;;;;15.37;39.77;101758.84;4755645;30;19925;-75
2021/03/24 11:22:21;;;;;;;;;;;;;;;15.70;39.43;101754.59;4720703;30;19927;-75
2021/03/24 11:25:25;;;;;;;;;;;;;;;16.10;38.23;101750.59;4764522;30;19926;-77
2021/03/24 11:28:04;;;;;;;;;;;;;;;16.13;37.92;101749.94;4758883;30;19926;-75
2021/03/24 11:30:32;;;;;;;;;;;;;;;16.09;38.37;101753.69;4755885;30;19952;-75
2021/03/24 11:33:10;;;;;;;;;;;;;;;16.16;37.41;101738.16;4740529;30;19927;-76
2021/03/24 11:35:49;;;;;;;;;;;;;;;16.19;37.35;101740.31;4728645;30;19965;-75
2021/03/24 11:38:19;;;;;;;;;;;;;;;16.50;37.13;101735.41;4725418;30;19945;-72
2021/03/24 11:40:52;;;;;;;;;;;;;;;15.78;37.68;101739.91;4752756;30;19953;-73
2021/03/24 11:43:25;;;;;;;;;;;;;;;15.62;38.35;101731.19;4747276;30;19927;-71
2021/03/24 11:45:52;;;;;;;;;;;;;;;16.12;38.00;101731.63;4744129;30;19933;-72
2021/03/24 11:48:24;;;;;;;;;;;;;;;15.97;38.12;101718.19;4764293;30;20402;-72
2021/03/24 11:51:05;;;;;;;;;;;;;;;16.19;37.87;101709.72;4754433;30;19925;-69
2021/03/24 11:53:56;;;;;;;;;;;;;;;16.33;37.50;101707.59;4762823;30;19926;-73
2021/03/24 11:56:33;;;;;;;;;;;;;;;16.18;38.69;101713.63;4755881;30;20364;-71
2021/03/24 11:59:03;;;;;;;;;;;;;;;16.21;38.28;101714.94;4761399;30;19937;-68
2021/03/24 12:01:55;;;;;;;;;;;;;;;16.47;38.04;101704.66;4758479;30;19943;-70
2021/03/24 12:04:30;;;;;;;;;;;;;;;16.28;39.01;101704.97;4734654;30;19953;-72
2021/03/24 12:07:09;;;;;;;;;;;;;;;16.03;38.54;101700.22;4739652;30;19926;-73
2021/03/24 12:09:39;;;;;;;;;;;;;;;15.66;39.60;101696.09;4747776;30;19926;-76
2021/03/24 12:12:09;;;;;;;;;;;;;;;15.68;39.93;101696.59;4724831;30;19930;-73
2021/03/24 12:14:38;;;;;;;;;;;;;;;16.01;39.59;101694.16;4751701;30;19926;-76
2021/03/24 12:17:23;;;;;;;;;;;;;;;16.21;38.58;101684.38;4749924;30;19926;-77
2021/03/24 12:19:50;;;;;;;;;;;;;;;16.21;38.05;101685.19;4752254;30;19951;-72
2021/03/24 12:22:32;;;;;;;;;;;;;;;16.67;37.41;101678.94;5044300;28;19921;-71
2021/03/24 12:25:02;;;;;;;;;;;;;;;16.67;37.80;101678.94;5062488;28;19925;-72
2021/03/24 12:27:33;;;;;;;;;;;;;;;16.88;36.99;101675.09;5048975;28;19925;-74
2021/03/24 12:30:26;;;;;;;;;;;;;;;17.16;35.87;101666.31;5048242;28;19929;-72
2021/03/24 12:33:11;;;;;;;;;;;;;;;16.92;35.35;101672.47;5028632;28;19929;-70
2021/03/24 12:35:39;;;;;;;;;;;;;;;16.95;34.85;101666.25;5046453;28;19932;-70
2021/03/24 12:38:07;;;;;;;;;;;;;;;17.06;34.13;101661.13;5060592;28;20024;-73
2021/03/24 12:40:34;;;;;;;;;;;;;;;17.04;34.73;101650.31;5059844;28;19945;-73
2021/03/24 12:43:06;;;;;;;;;;;;;;;16.93;33.64;101662.16;5060825;28;19925;-76
2021/03/24 12:45:38;;;;;;;;;;;;;;;17.02;34.65;101644.28;5032846;28;19933;-75
2021/03/24 12:48:07;;;;;;;;;;;;;;;17.37;34.37;101653.28;5033571;28;19932;-74
2021/03/24 12:50:34;;;;;;;;;;;;;;;17.53;34.20;101643.22;5044977;28;20388;-73
2021/03/24 12:53:08;;;;;;;;;;;;;;;17.28;34.01;101636.59;5077506;28;19962;-76
2021/03/24 12:55:36;;;;;;;;;;;;;;;17.26;33.82;101636.13;5045198;28;19925;-76
2021/03/24 12:58:03;;;;;;;;;;;;;;;17.49;34.23;101631.94;5052165;28;19936;-75
2021/03/24 13:00:43;;;;;;;;;;;;;;;17.38;34.80;101627.84;5050568;28;19925;-71
2021/03/24 13:03:18;;;;;;;;;;;;;;;17.56;34.78;101620.25;5047933;28;20372;-72
2021/03/24 13:06:16;;;;;;;;;;;;;;;17.54;35.07;101623.38;5044655;28;20255;-71
2021/03/24 13:08:43;;;;;;;;;;;;;;;17.87;33.87;101615.91;5050852;28;20339;-72
2021/03/24 13:11:35;;;;;;;;;;;;;;;17.80;34.01;101614.84;5048498;28;20384;-73
2021/03/24 13:14:09;;;;;;;;;;;;;;;17.58;34.26;101613.19;5058873;28;19925;-71
2021/03/24 13:16:36;;;;;;;;;;;;;;;17.48;34.12;101607.19;5045536;28;19961;-71